createdAt,value
2023-04-23T00:01:42.753Z,16.78
2023-04-23T00:04:51.749Z,16.82
2023-04-23T00:07:57.324Z,16.76
2023-04-23T00:11:00.910Z,16.93
2023-04-23T00:14:04.132Z,16.96
2023-04-23T00:17:06.986Z,16.88
2023-04-23T00:20:10.518Z,16.80
2023-04-23T00:23:14.713Z,16.98
2023-04-23T00:26:18.597Z,17.00
2023-04-23T00:29:21.589Z,16.97
2023-04-23T00:32:24.548Z,16.91
2023-04-23T00:35:27.295Z,16.87
2023-04-23T00:38:31.497Z,16.78
2023-04-23T00:41:35.548Z,16.85
2023-04-23T00:44:38.548Z,16.77
2023-04-23T00:47:42.103Z,16.81
2023-04-23T00:50:44.860Z,16.68
2023-04-23T00:53:49.388Z,16.66
2023-04-23T00:56:52.298Z,16.83
2023-04-23T00:59:56.863Z,16.68
2023-04-23T01:03:01.549Z,16.73
2023-04-23T01:06:04.810Z,16.96
2023-04-23T01:09:10.021Z,16.83
2023-04-23T01:12:13.560Z,16.81
2023-04-23T01:15:16.652Z,16.85
2023-04-23T01:18:20.178Z,16.80
2023-04-23T01:21:23.574Z,16.65
2023-04-23T01:24:28.112Z,16.58
2023-04-23T01:27:31.283Z,16.57
2023-04-23T01:30:34.710Z,16.59
2023-04-23T01:33:37.832Z,16.56
2023-04-23T01:36:42.333Z,16.65
2023-04-23T01:39:46.617Z,16.51
2023-04-23T01:42:49.756Z,16.34
2023-04-23T01:45:52.739Z,16.26
2023-04-23T01:48:55.873Z,16.23
2023-04-23T01:51:58.638Z,16.14
2023-04-23T01:55:03.121Z,16.04
2023-04-23T01:58:06.230Z,16.04
2023-04-23T02:01:08.945Z,16.00
2023-04-23T02:04:12.979Z,16.07
2023-04-23T02:07:15.764Z,16.11
2023-04-23T02:10:20.710Z,16.19
2023-04-23T02:13:23.613Z,16.15
2023-04-23T02:16:26.703Z,16.12
2023-04-23T02:19:31.810Z,15.98
2023-04-23T02:22:34.729Z,15.95
2023-04-23T02:25:39.715Z,15.96
2023-04-23T02:28:42.439Z,15.95
2023-04-23T02:31:45.344Z,15.92
2023-04-23T02:34:48.245Z,15.88
2023-04-23T02:37:50.994Z,15.83
2023-04-23T02:40:55.191Z,15.78
2023-04-23T02:43:57.888Z,15.73
2023-04-23T02:47:00.818Z,15.74
2023-04-23T02:50:05.998Z,15.70
2023-04-23T02:53:08.864Z,15.68
2023-04-23T02:56:13.079Z,15.62
2023-04-23T02:59:15.948Z,15.65
2023-04-23T03:02:18.773Z,15.73
2023-04-23T03:05:21.719Z,15.67
2023-04-23T03:08:24.468Z,15.76
2023-04-23T03:11:28.664Z,15.70
2023-04-23T03:14:31.502Z,15.72
2023-04-23T03:17:34.417Z,15.75
2023-04-23T03:20:37.644Z,15.74
2023-04-23T03:23:40.389Z,15.67
2023-04-23T03:26:44.575Z,15.67
2023-04-23T03:29:48.076Z,15.67
2023-04-23T03:32:51.719Z,15.68
2023-04-23T03:35:54.569Z,15.67
2023-04-23T03:38:57.331Z,15.79
2023-04-23T03:42:02.086Z,15.71
2023-04-23T03:45:05.672Z,15.63
2023-04-23T03:48:08.637Z,15.58
2023-04-23T03:51:11.458Z,15.57
2023-04-23T03:54:14.159Z,15.54
2023-04-23T03:57:18.365Z,15.53
2023-04-23T04:00:21.659Z,15.66
2023-04-23T04:03:24.623Z,15.59
2023-04-23T04:06:27.716Z,15.55
2023-04-23T04:09:30.650Z,15.61
2023-04-23T04:12:34.885Z,15.59
2023-04-23T04:15:37.575Z,15.71
2023-04-23T04:18:40.568Z,15.67
2023-04-23T04:21:43.394Z,15.65
2023-04-23T04:24:47.452Z,15.57
2023-04-23T04:27:52.009Z,15.52
2023-04-23T04:30:57.511Z,15.49
2023-04-23T04:34:00.861Z,15.42
2023-04-23T04:37:03.668Z,15.35
2023-04-23T04:40:08.306Z,15.31
2023-04-23T04:43:12.875Z,15.28
2023-04-23T04:46:16.154Z,15.40
2023-04-23T04:49:19.720Z,15.30
2023-04-23T04:52:22.630Z,15.16
2023-04-23T04:55:25.410Z,15.08
2023-04-23T04:58:29.666Z,15.07
2023-04-23T05:01:33.296Z,15.05
2023-04-23T05:04:36.192Z,15.02
2023-04-23T05:07:39.019Z,15.04
2023-04-23T05:10:41.762Z,15.05
2023-04-23T05:13:46.477Z,15.08
2023-04-23T05:16:49.228Z,15.05
2023-04-23T05:19:52.154Z,15.17
2023-04-23T05:22:55.044Z,15.20
2023-04-23T05:25:58.667Z,15.26
2023-04-23T05:29:02.875Z,15.34
2023-04-23T05:32:05.718Z,15.35
2023-04-23T05:35:09.341Z,15.34
2023-04-23T05:38:12.190Z,15.44
2023-04-23T05:41:14.925Z,15.37
2023-04-23T05:44:19.132Z,15.40
2023-04-23T05:47:22.312Z,15.53
2023-04-23T05:50:25.301Z,15.33
2023-04-23T05:53:29.205Z,15.28
2023-04-23T05:56:31.926Z,15.28
2023-04-23T05:59:36.294Z,15.32
2023-04-23T06:02:39.319Z,15.31
2023-04-23T06:05:43.321Z,15.34
2023-04-23T06:08:46.191Z,15.33
2023-04-23T06:11:50.485Z,15.32
2023-04-23T06:14:54.872Z,15.39
2023-04-23T06:17:57.816Z,15.47
2023-04-23T06:21:04.276Z,15.52
2023-04-23T06:24:07.495Z,15.59
2023-04-23T06:27:10.181Z,15.53
2023-04-23T06:30:15.093Z,15.58
2023-04-23T06:33:17.976Z,15.62
2023-04-23T06:36:21.112Z,15.70
2023-04-23T06:39:23.956Z,15.67
2023-04-23T06:42:26.757Z,15.63
2023-04-23T06:45:32.021Z,15.66
2023-04-23T06:48:34.797Z,15.60
2023-04-23T06:51:37.705Z,15.59
2023-04-23T06:54:40.955Z,15.48
2023-04-23T06:57:43.772Z,15.49
2023-04-23T07:00:47.975Z,15.41
2023-04-23T07:03:52.346Z,15.35
2023-04-23T07:06:55.457Z,15.42
2023-04-23T07:09:58.372Z,15.40
2023-04-23T07:13:01.557Z,15.32
2023-04-23T07:16:06.003Z,15.24
2023-04-23T07:19:08.707Z,15.24
2023-04-23T07:22:11.426Z,15.42
2023-04-23T07:25:14.260Z,15.50
2023-04-23T07:28:17.027Z,15.65
2023-04-23T07:31:21.295Z,15.61
2023-04-23T07:34:24.024Z,15.70
2023-04-23T07:37:26.972Z,15.66
2023-04-23T07:40:29.830Z,15.71
2023-04-23T07:43:32.540Z,15.76
2023-04-23T07:46:36.887Z,15.79
2023-04-23T07:49:39.976Z,15.63
2023-04-23T07:52:43.041Z,15.57
2023-04-23T07:55:45.905Z,15.55
2023-04-23T07:58:48.609Z,15.48
2023-04-23T08:01:52.982Z,15.50
2023-04-23T08:04:55.984Z,15.42
2023-04-23T08:07:59.123Z,15.52
2023-04-23T08:11:02.036Z,15.52
2023-04-23T08:14:04.782Z,15.64
2023-04-23T08:17:09.069Z,15.63
2023-04-23T08:20:12.337Z,15.69
2023-04-23T08:23:15.190Z,15.69
2023-04-23T08:26:18.161Z,15.67
2023-04-23T08:29:20.873Z,15.75
2023-04-23T08:32:25.085Z,15.70
2023-04-23T08:35:27.822Z,15.83
2023-04-23T08:38:30.704Z,15.89
2023-04-23T08:41:39.548Z,15.95
2023-04-23T08:44:43.880Z,16.04
2023-04-23T08:47:48.156Z,15.88
2023-04-23T08:50:50.928Z,15.65
2023-04-23T08:53:59.426Z,15.62
2023-04-23T08:57:02.696Z,15.72
2023-04-23T09:00:08.101Z,15.61
2023-04-23T09:03:13.085Z,15.43
2023-04-23T09:06:15.917Z,15.26
2023-04-23T09:09:19.617Z,15.36
2023-04-23T09:12:22.569Z,15.28
2023-04-23T09:15:25.281Z,15.20
2023-04-23T09:18:29.775Z,15.00
2023-04-23T09:21:33.284Z,15.05
2023-04-23T09:24:36.293Z,15.10
2023-04-23T09:27:39.456Z,15.08
2023-04-23T09:30:45.173Z,15.21
2023-04-23T09:33:53.602Z,15.17
2023-04-23T09:36:56.379Z,15.01
2023-04-23T09:40:04.342Z,14.96
2023-04-23T09:43:08.243Z,14.93
2023-04-23T09:46:11.750Z,15.13
2023-04-23T09:49:16.629Z,15.02
2023-04-23T09:52:20.469Z,15.09
2023-04-23T09:55:29.717Z,15.21
2023-04-23T09:58:32.605Z,15.23
2023-04-23T10:01:35.350Z,15.25
2023-04-23T10:04:40.900Z,15.44
2023-04-23T10:07:45.223Z,15.38
2023-04-23T10:13:56.096Z,15.22
2023-04-23T10:17:00.399Z,15.17
2023-04-23T10:20:06.182Z,15.35
2023-04-23T10:23:10.466Z,15.43
2023-04-23T10:26:16.935Z,15.65
2023-04-23T10:29:22.993Z,15.84
2023-04-23T10:32:26.889Z,15.79
2023-04-23T10:35:32.312Z,15.92
2023-04-23T10:38:39.307Z,15.89
2023-04-23T10:41:49.484Z,16.16
2023-04-23T10:45:02.672Z,16.33
2023-04-23T10:48:10.920Z,16.50
2023-04-23T10:54:21.945Z,16.39
2023-04-23T10:57:24.952Z,16.24
2023-04-23T11:00:28.275Z,16.24
2023-04-23T11:03:43.059Z,16.20
2023-04-23T11:06:56.675Z,16.14
2023-04-23T11:10:00.808Z,16.00
2023-04-23T11:13:23.866Z,16.33
2023-04-23T11:16:26.859Z,16.28
2023-04-23T11:19:30.190Z,16.49
2023-04-23T11:22:37.820Z,16.61
2023-04-23T11:25:44.716Z,16.45
2023-04-23T11:28:50.208Z,16.68
2023-04-23T11:35:00.621Z,17.13
2023-04-23T11:38:09.562Z,17.20
2023-04-23T11:41:12.450Z,17.87
2023-04-23T11:44:15.821Z,18.03
2023-04-23T11:47:18.778Z,18.10
2023-04-23T11:50:23.318Z,17.97
2023-04-23T11:53:28.125Z,18.12
2023-04-23T11:56:31.708Z,18.27
2023-04-23T11:59:34.531Z,18.02
2023-04-23T12:02:37.289Z,18.36
2023-04-23T12:05:45.404Z,18.60
2023-04-23T12:08:49.730Z,18.65
2023-04-23T12:11:52.843Z,18.64
2023-04-23T12:15:05.115Z,18.55
2023-04-23T12:18:11.752Z,18.88
2023-04-23T12:21:15.364Z,18.84
2023-04-23T12:24:19.414Z,19.49
2023-04-23T12:27:23.255Z,19.65
2023-04-23T12:30:29.862Z,19.84
2023-04-23T12:33:32.862Z,19.64
2023-04-23T12:36:37.357Z,19.71
2023-04-23T12:39:41.658Z,19.57
2023-04-23T12:42:44.716Z,19.70
2023-04-23T12:45:47.677Z,20.38
2023-04-23T12:48:50.392Z,20.66
2023-04-23T12:51:53.352Z,20.20
2023-04-23T12:54:58.982Z,20.48
2023-04-23T12:58:01.791Z,20.77
2023-04-23T13:01:04.670Z,20.84
2023-04-23T13:04:07.819Z,20.48
2023-04-23T13:07:10.705Z,20.40
2023-04-23T13:10:14.818Z,20.62
2023-04-23T13:13:17.692Z,20.85
2023-04-23T13:16:20.659Z,21.05
2023-04-23T13:19:23.326Z,20.87
2023-04-23T13:22:29.161Z,20.52
2023-04-23T13:25:33.304Z,20.17
2023-04-23T13:28:36.668Z,20.30
2023-04-23T13:31:39.494Z,19.77
2023-04-23T13:34:42.256Z,20.01
2023-04-23T13:37:45.070Z,20.56
2023-04-23T13:40:49.179Z,20.77
2023-04-23T13:43:52.788Z,20.65
2023-04-23T13:46:57.226Z,21.01
2023-04-23T13:50:00.291Z,20.61
2023-04-23T13:53:03.097Z,20.43
2023-04-23T13:56:07.439Z,20.43
2023-04-23T13:59:19.502Z,20.63
2023-04-23T14:02:24.059Z,20.55
2023-04-23T14:05:26.919Z,20.40
2023-04-23T14:08:30.013Z,20.50
2023-04-23T14:11:34.428Z,20.63
2023-04-23T14:14:37.346Z,20.46
2023-04-23T14:17:43.026Z,20.65
2023-04-23T14:20:45.796Z,20.61
2023-04-23T14:23:57.267Z,20.78
2023-04-23T14:30:06.318Z,20.43
2023-04-23T14:33:09.297Z,20.48
2023-04-23T14:36:12.040Z,20.29
2023-04-23T14:39:16.335Z,20.47
2023-04-23T14:42:20.403Z,20.84
2023-04-23T14:45:23.217Z,20.89
2023-04-23T14:48:26.027Z,20.55
2023-04-23T14:51:28.780Z,20.62
2023-04-23T14:54:31.636Z,20.17
2023-04-23T14:57:35.691Z,20.22
2023-04-23T15:00:38.583Z,20.35
2023-04-23T15:03:41.857Z,20.55
2023-04-23T15:06:44.597Z,20.44
2023-04-23T15:09:47.474Z,20.47
2023-04-23T15:12:56.806Z,20.31
2023-04-23T15:16:05.712Z,20.26
2023-04-23T15:19:10.126Z,20.24
2023-04-23T15:22:12.963Z,20.11
2023-04-23T15:25:16.550Z,20.11
2023-04-23T15:28:23.565Z,19.83
2023-04-23T15:31:26.493Z,19.82
2023-04-23T15:34:29.346Z,19.79
2023-04-23T15:37:32.055Z,19.56
2023-04-23T15:40:42.115Z,19.44
2023-04-23T15:43:47.284Z,19.29
2023-04-23T15:46:50.155Z,19.27
2023-04-23T15:49:52.834Z,19.26
2023-04-23T15:52:57.622Z,19.11
2023-04-23T15:56:00.504Z,19.05
2023-04-23T15:59:04.605Z,18.98
2023-04-23T16:02:07.561Z,18.90
2023-04-23T16:05:11.584Z,18.81
2023-04-23T16:08:16.342Z,18.78
2023-04-23T16:11:19.404Z,18.88
2023-04-23T16:14:23.494Z,18.93
2023-04-23T16:17:28.082Z,19.01
2023-04-23T16:20:30.950Z,18.93
2023-04-23T16:23:34.391Z,18.83
2023-04-23T16:26:37.554Z,18.75
2023-04-23T16:29:41.925Z,18.69
2023-04-23T16:32:45.044Z,18.60
2023-04-23T16:35:47.869Z,18.50
2023-04-23T16:38:51.659Z,18.42
2023-04-23T16:41:55.850Z,18.32
2023-04-23T16:44:59.900Z,18.33
2023-04-23T16:48:02.736Z,18.41
2023-04-23T16:51:05.700Z,18.38
2023-04-23T16:54:08.603Z,18.26
2023-04-23T16:57:12.772Z,18.22
2023-04-23T17:00:17.908Z,18.12
2023-04-23T17:03:21.050Z,18.02
2023-04-23T17:06:27.665Z,18.00
2023-04-23T17:09:31.756Z,17.93
2023-04-23T17:12:34.591Z,17.89
2023-04-23T17:15:39.129Z,17.88
2023-04-23T17:18:41.969Z,17.84
2023-04-23T17:21:45.153Z,17.80
2023-04-23T17:24:48.061Z,17.79
2023-04-23T17:27:50.879Z,17.70
2023-04-23T17:30:55.869Z,17.65
2023-04-23T17:33:58.862Z,17.64
2023-04-23T17:37:01.560Z,17.64
2023-04-23T17:40:05.966Z,17.61
2023-04-23T17:43:08.901Z,17.63
2023-04-23T17:46:13.070Z,17.58
2023-04-23T17:49:16.025Z,17.45
2023-04-23T17:52:18.735Z,17.45
2023-04-23T17:55:22.082Z,17.37
2023-04-23T17:58:24.966Z,17.30
2023-04-23T18:01:29.161Z,17.27
2023-04-23T18:04:34.985Z,17.10
2023-04-23T18:07:37.937Z,16.87
2023-04-23T18:10:40.904Z,16.73
2023-04-23T18:13:44.016Z,16.61
2023-04-23T18:16:48.131Z,16.54
2023-04-23T18:19:51.399Z,16.49
2023-04-23T18:22:54.749Z,16.40
2023-04-23T18:25:58.619Z,16.30
2023-04-23T18:29:01.479Z,16.10
2023-04-23T18:32:06.262Z,16.04
2023-04-23T18:35:10.074Z,15.91
2023-04-23T18:38:25.109Z,15.87
2023-04-23T18:41:28.998Z,15.63
2023-04-23T18:44:32.474Z,15.44
2023-04-23T18:47:39.554Z,15.33
2023-04-23T18:50:45.238Z,15.27
2023-04-23T18:53:48.851Z,15.27
2023-04-23T18:56:52.872Z,15.08
2023-04-23T18:59:55.727Z,15.05
2023-04-23T19:03:02.795Z,14.87
2023-04-23T19:06:09.472Z,14.69
2023-04-23T19:09:12.187Z,14.59
2023-04-23T19:12:15.030Z,14.58
2023-04-23T19:15:18.131Z,14.52
2023-04-23T19:18:23.195Z,14.47
2023-04-23T19:21:26.155Z,14.33
2023-04-23T19:24:30.556Z,14.26
2023-04-23T19:27:33.390Z,14.21
2023-04-23T19:30:36.305Z,14.15
2023-04-23T19:33:42.735Z,14.15
2023-04-23T19:36:47.799Z,14.11
2023-04-23T19:39:50.593Z,13.96
2023-04-23T19:42:53.442Z,13.90
2023-04-23T19:45:56.358Z,13.84
2023-04-23T19:49:00.544Z,13.78
2023-04-23T19:52:04.957Z,13.78
2023-04-23T19:55:08.754Z,13.76
2023-04-23T19:58:11.877Z,13.69
2023-04-23T20:01:14.796Z,13.67
2023-04-23T20:04:19.025Z,13.63
2023-04-23T20:07:21.965Z,13.56
2023-04-23T20:10:29.104Z,13.62
2023-04-23T20:13:33.067Z,13.55
2023-04-23T20:16:36.087Z,13.71
2023-04-23T20:19:41.040Z,13.65
2023-04-23T20:22:44.019Z,13.66
2023-04-23T20:25:48.005Z,13.62
2023-04-23T20:28:50.867Z,13.61
2023-04-23T20:31:53.601Z,13.67
2023-04-23T20:34:58.966Z,13.64
2023-04-23T20:38:02.053Z,13.58
2023-04-23T20:41:05.192Z,13.53
2023-04-23T20:44:09.096Z,13.41
2023-04-23T20:47:11.857Z,13.34
2023-04-23T20:50:17.536Z,13.38
2023-04-23T20:53:20.469Z,13.33
2023-04-23T20:56:23.171Z,13.30
2023-04-23T20:59:26.000Z,13.33
2023-04-23T21:02:28.837Z,13.33
2023-04-23T21:05:33.136Z,13.31
2023-04-23T21:08:37.920Z,13.27
2023-04-23T21:11:40.962Z,13.24
2023-04-23T21:14:43.904Z,13.28
2023-04-23T21:17:46.606Z,13.28
2023-04-23T21:20:50.804Z,13.49
2023-04-23T21:23:53.511Z,13.24
2023-04-23T21:26:56.369Z,13.26
2023-04-23T21:30:05.796Z,13.25
2023-04-23T21:33:08.721Z,13.20
2023-04-23T21:36:12.892Z,13.18
2023-04-23T21:39:16.268Z,13.30
2023-04-23T21:42:19.209Z,13.17
2023-04-23T21:45:22.026Z,13.21
2023-04-23T21:48:24.892Z,13.19
2023-04-23T21:51:30.006Z,13.19
2023-04-23T21:54:33.109Z,13.18
2023-04-23T21:57:36.421Z,13.17
2023-04-23T22:00:39.647Z,13.21
2023-04-23T22:03:46.938Z,13.13
2023-04-23T22:06:51.313Z,13.05
2023-04-23T22:09:54.285Z,13.05
2023-04-23T22:12:57.223Z,13.02
2023-04-23T22:16:00.302Z,12.98
2023-04-23T22:19:03.905Z,12.98
2023-04-23T22:22:08.262Z,12.95
2023-04-23T22:25:12.938Z,12.90
2023-04-23T22:28:15.666Z,12.86
2023-04-23T22:31:18.614Z,12.85
2023-04-23T22:34:21.342Z,12.83
2023-04-23T22:37:25.559Z,12.88
2023-04-23T22:40:28.286Z,12.85
2023-04-23T22:43:31.120Z,12.84
2023-04-23T22:46:34.028Z,12.84
2023-04-23T22:49:37.216Z,12.80
2023-04-23T22:52:41.526Z,12.82
2023-04-23T22:55:44.210Z,12.76
2023-04-23T22:58:47.014Z,12.74
2023-04-23T23:01:50.097Z,12.65
2023-04-23T23:04:52.977Z,12.67
2023-04-23T23:07:56.993Z,12.63
2023-04-23T23:10:59.943Z,12.61
2023-04-23T23:14:03.021Z,12.61
2023-04-23T23:17:06.834Z,12.59
2023-04-23T23:20:11.689Z,12.51
2023-04-23T23:23:15.926Z,12.45
2023-04-23T23:26:19.925Z,12.43
2023-04-23T23:29:22.851Z,12.44
2023-04-23T23:32:25.604Z,12.42
2023-04-23T23:35:28.473Z,12.37
2023-04-23T23:38:32.653Z,12.38
2023-04-23T23:41:35.380Z,12.38
2023-04-23T23:44:38.203Z,12.40
2023-04-23T23:47:40.987Z,12.34
2023-04-23T23:50:43.834Z,12.26
2023-04-23T23:53:48.032Z,12.26
2023-04-23T23:56:50.722Z,12.23
2023-04-23T23:59:53.573Z,12.21
